createdAt,value
2019-05-02T19:45:21.837Z,16.33
2019-05-02T19:46:51.931Z,16.28
2019-05-02T19:47:54.324Z,16.28
2019-05-02T19:49:47.341Z,16.21
2019-05-02T19:50:44.233Z,16.17
2019-05-02T19:52:40.502Z,16.13
2019-05-02T19:53:38.457Z,16.15
2019-05-02T19:55:33.960Z,16.05
2019-05-02T19:56:45.365Z,16.08
2019-05-02T19:58:27.252Z,16.04
2019-05-02T19:59:29.597Z,15.92
2019-05-02T20:01:22.931Z,15.95
2019-05-02T20:02:22.299Z,15.92
2019-05-02T20:04:16.448Z,15.84
2019-05-02T20:05:16.407Z,15.88
2019-05-02T20:07:12.248Z,15.84
2019-05-02T20:08:14.784Z,15.90
2019-05-02T20:09:11.399Z,15.90
2019-05-02T20:10:12.198Z,15.83
2019-05-02T20:11:12.440Z,15.92
2019-05-02T20:12:15.472Z,15.92
2019-05-02T20:13:12.010Z,15.86
2019-05-02T20:14:12.401Z,15.84
2019-05-02T20:15:12.097Z,15.82
2019-05-02T20:16:11.855Z,15.70
2019-05-02T20:17:14.831Z,15.73
2019-05-02T20:18:11.971Z,15.80
2019-05-02T20:19:12.289Z,15.77
2019-05-02T20:20:12.297Z,15.82
2019-05-02T20:21:13.632Z,15.80
2019-05-02T20:22:11.830Z,15.80
2019-05-02T20:23:17.865Z,15.72
2019-05-02T20:24:17.485Z,15.64
2019-05-02T20:25:12.392Z,15.73
2019-05-02T20:26:15.398Z,15.62
2019-05-02T20:27:12.073Z,15.61
2019-05-02T20:28:10.256Z,15.65
2019-05-02T20:29:10.254Z,15.52
2019-05-02T20:30:12.024Z,15.49
2019-05-02T20:31:12.174Z,15.55
2019-05-02T20:32:10.242Z,15.51
2019-05-02T20:33:10.236Z,15.47
2019-05-02T20:34:11.801Z,15.54
2019-05-02T20:35:11.947Z,15.44
2019-05-02T20:36:12.183Z,15.52
2019-05-02T20:37:12.602Z,15.52
2019-05-02T20:38:11.783Z,15.43
2019-05-02T20:39:11.876Z,15.49
2019-05-02T20:40:11.935Z,15.42
2019-05-02T20:41:12.532Z,15.37
2019-05-02T20:42:11.988Z,15.47
2019-05-02T20:43:12.003Z,15.42
2019-05-02T20:44:12.017Z,15.37
2019-05-02T20:45:11.654Z,15.31
2019-05-02T20:46:11.998Z,15.37
2019-05-02T20:47:12.094Z,15.24
2019-05-02T20:48:11.922Z,15.25
2019-05-02T20:49:10.206Z,15.25
2019-05-02T20:50:11.982Z,15.24
2019-05-02T20:51:11.989Z,15.24
2019-05-02T20:52:11.901Z,15.25
2019-05-02T20:53:12.766Z,15.24
2019-05-02T20:54:12.374Z,15.22
2019-05-02T20:55:12.144Z,15.22
2019-05-02T20:56:12.172Z,15.15
2019-05-02T20:57:12.008Z,15.17
2019-05-02T20:58:10.250Z,15.10
2019-05-02T20:59:12.748Z,15.14
2019-05-02T21:00:12.141Z,15.04
2019-05-02T21:01:12.182Z,15.07
2019-05-02T21:02:12.254Z,14.97
2019-05-02T21:03:11.971Z,15.09
2019-05-02T21:04:12.023Z,15.04
2019-05-02T21:05:11.846Z,15.06
2019-05-02T21:06:12.245Z,14.96
2019-05-02T21:07:10.223Z,14.86
2019-05-02T21:08:10.252Z,14.92
2019-05-02T21:09:10.329Z,14.94
2019-05-02T21:10:10.199Z,14.92
2019-05-02T21:11:12.319Z,14.89
2019-05-02T21:12:12.614Z,14.88
2019-05-02T21:13:10.233Z,14.94
2019-05-02T21:14:12.295Z,14.86
2019-05-02T21:15:12.332Z,14.96
2019-05-02T21:16:12.082Z,14.86
2019-05-02T21:17:10.245Z,14.84
2019-05-02T21:18:11.700Z,14.88
2019-05-02T21:19:12.233Z,14.89
2019-05-02T21:20:12.328Z,14.89
2019-05-02T21:21:10.110Z,14.79
2019-05-02T21:22:10.433Z,14.77
2019-05-02T21:23:10.980Z,14.77
2019-05-02T21:24:10.075Z,14.73
2019-05-02T21:25:10.074Z,14.77
2019-05-02T21:26:10.067Z,14.77
2019-05-02T21:27:10.080Z,14.77
2019-05-02T21:28:11.831Z,14.81
2019-05-02T21:29:11.987Z,14.82
2019-05-02T21:30:12.175Z,14.92
2019-05-02T21:31:11.981Z,14.86
2019-05-02T21:32:12.034Z,14.85
2019-05-02T21:33:11.769Z,14.79
2019-05-02T21:34:11.717Z,14.79
2019-05-02T21:35:11.926Z,14.73
2019-05-02T21:36:12.030Z,14.79
2019-05-02T21:37:10.033Z,14.66
2019-05-02T21:38:11.907Z,14.63
2019-05-02T21:39:11.830Z,14.65
2019-05-02T21:40:11.819Z,14.62
2019-05-02T21:41:10.218Z,14.50
2019-05-02T21:42:10.390Z,14.58
2019-05-02T21:43:12.864Z,14.54
2019-05-02T21:44:10.271Z,14.55
2019-05-02T21:45:10.224Z,14.58
2019-05-02T21:46:10.917Z,14.58
2019-05-02T21:47:10.322Z,14.58
2019-05-02T21:48:10.163Z,14.54
2019-05-02T21:49:11.944Z,14.60
2019-05-02T21:50:10.062Z,14.66
2019-05-02T21:51:12.011Z,14.59
2019-05-02T21:52:11.761Z,14.62
2019-05-02T21:53:10.235Z,14.59
2019-05-02T21:54:12.075Z,14.60
2019-05-02T21:55:09.962Z,14.68
2019-05-02T21:56:09.966Z,14.59
2019-05-02T21:57:12.023Z,14.66
2019-05-02T21:58:12.002Z,14.65
2019-05-02T21:59:11.902Z,14.59
2019-05-02T22:00:11.669Z,14.63
2019-05-02T22:01:10.125Z,14.53
2019-05-02T22:02:11.863Z,14.54
2019-05-02T22:03:09.930Z,14.48
2019-05-02T22:04:09.943Z,14.48
2019-05-02T22:05:10.066Z,14.47
2019-05-02T22:06:12.261Z,14.50
2019-05-02T22:07:12.104Z,14.36
2019-05-02T22:08:12.149Z,14.28
2019-05-02T22:09:12.095Z,14.28
2019-05-02T22:10:12.013Z,14.26
2019-05-02T22:11:12.159Z,14.26
2019-05-02T22:12:11.833Z,14.28
2019-05-02T22:13:11.375Z,14.23
2019-05-02T22:14:13.412Z,14.26
2019-05-02T22:15:09.930Z,14.29
2019-05-02T22:16:10.059Z,14.25
2019-05-02T22:17:12.689Z,14.29
2019-05-02T22:18:09.898Z,14.23
2019-05-02T22:19:11.381Z,14.35
2019-05-02T22:20:10.099Z,14.32
2019-05-02T22:21:09.932Z,14.28
2019-05-02T22:22:09.873Z,14.35
2019-05-02T22:23:11.714Z,14.32
2019-05-02T22:24:13.693Z,14.26
2019-05-02T22:25:11.536Z,14.32
2019-05-02T22:26:09.837Z,14.29
2019-05-02T22:27:09.839Z,14.30
2019-05-02T22:28:09.993Z,14.29
2019-05-02T22:29:09.831Z,14.30
2019-05-02T22:30:09.824Z,14.20
2019-05-02T22:31:12.543Z,14.20
2019-05-02T22:32:12.222Z,14.28
2019-05-02T22:33:11.775Z,14.22
2019-05-02T22:34:09.978Z,14.22
2019-05-02T22:35:12.247Z,14.11
2019-05-02T22:36:10.040Z,14.15
2019-05-02T22:37:09.795Z,14.08
2019-05-02T22:38:11.725Z,14.10
2019-05-02T22:39:09.965Z,14.15
2019-05-02T22:40:10.138Z,14.04
2019-05-02T22:41:10.101Z,14.14
2019-05-02T22:42:12.691Z,14.08
2019-05-02T22:43:09.772Z,14.04
2019-05-02T22:44:09.770Z,14.04
2019-05-02T22:45:10.006Z,13.96
2019-05-02T22:46:09.782Z,13.97
2019-05-02T22:47:11.778Z,13.97
2019-05-02T22:48:14.096Z,13.97
2019-05-02T22:49:11.508Z,13.92
2019-05-02T22:50:09.749Z,14.00
2019-05-02T22:51:09.785Z,13.95
2019-05-02T22:52:10.063Z,13.95
2019-05-02T22:53:09.794Z,13.99
2019-05-02T22:54:23.327Z,14.00
2019-05-02T22:55:09.742Z,14.03
2019-05-02T22:56:11.825Z,14.00
2019-05-02T22:57:11.557Z,13.97
2019-05-02T22:58:09.837Z,13.86
2019-05-02T22:59:09.943Z,13.87
2019-05-02T23:00:09.819Z,13.81
2019-05-02T23:01:10.978Z,13.81
2019-05-02T23:02:12.771Z,13.79
2019-05-02T23:03:12.432Z,13.81
2019-05-02T23:04:10.028Z,13.77
2019-05-02T23:05:09.892Z,13.77
2019-05-02T23:06:12.529Z,13.81
2019-05-02T23:07:12.674Z,13.85
2019-05-02T23:08:12.528Z,13.87
2019-05-02T23:09:09.924Z,13.81
2019-05-02T23:10:09.673Z,13.86
2019-05-02T23:11:09.995Z,13.79
2019-05-02T23:12:09.922Z,13.85
2019-05-02T23:13:09.978Z,13.79
2019-05-02T23:14:09.644Z,13.89
2019-05-02T23:15:09.685Z,13.83
2019-05-02T23:16:10.723Z,13.90
2019-05-02T23:17:12.788Z,13.83
2019-05-02T23:18:09.623Z,13.85
2019-05-02T23:19:12.272Z,13.81
2019-05-02T23:20:09.619Z,13.83
2019-05-02T23:21:09.800Z,13.79
2019-05-02T23:22:09.927Z,13.74
2019-05-02T23:23:12.403Z,13.72
2019-05-02T23:24:09.599Z,13.75
2019-05-02T23:25:11.664Z,13.72
2019-05-02T23:26:09.945Z,13.70
2019-05-02T23:27:11.674Z,13.68
2019-05-02T23:28:09.593Z,13.68
2019-05-02T23:29:09.815Z,13.70
2019-05-02T23:30:11.542Z,13.67
2019-05-02T23:31:11.444Z,13.68
2019-05-02T23:32:09.568Z,13.57
2019-05-02T23:33:09.632Z,13.62
2019-05-02T23:34:09.625Z,13.56
2019-05-02T23:35:09.549Z,13.65
2019-05-02T23:36:09.548Z,13.65
2019-05-02T23:37:11.818Z,13.62
2019-05-02T23:38:09.594Z,13.57
2019-05-02T23:39:09.766Z,13.62
2019-05-02T23:40:12.362Z,13.59
2019-05-02T23:41:09.532Z,13.62
2019-05-02T23:42:09.825Z,13.59
2019-05-02T23:43:09.648Z,13.62
2019-05-02T23:44:09.508Z,13.56
2019-05-02T23:45:09.504Z,13.59
2019-05-02T23:46:09.499Z,13.57
2019-05-02T23:47:09.515Z,13.59
2019-05-02T23:48:09.521Z,13.65
2019-05-02T23:49:09.491Z,13.59
2019-05-02T23:50:09.512Z,13.67
2019-05-02T23:51:09.481Z,13.68
2019-05-02T23:52:09.475Z,13.70
2019-05-02T23:53:09.490Z,13.62
2019-05-02T23:54:09.463Z,13.63
2019-05-02T23:55:09.461Z,13.71
2019-05-02T23:56:09.478Z,13.71
2019-05-02T23:57:09.450Z,13.70
2019-05-02T23:58:09.449Z,13.65
2019-05-02T23:59:09.500Z,13.70
